Time;durP1;ratioP1;P1;durP2;ratioP2;P2;SDS_P1;SDS_P2;PMS_P1;PMS_P2;Temp;Humidity;BMP_temperature;BMP_pressure;BME280_temperature;BME280_humidity;BME280_pressure;Samples;Min_cycle;Max_cycle;Signal;HPM_P1;HPM_P2
2021/12/17 00:01:54;;;;;;;;;;;20.70;34.90;;;;;;482158;246;1193;-46
2021/12/17 00:03:37;;;;;;;;;;;20.70;35.00;;;;;;480900;247;2161;-46
2021/12/17 00:05:46;;;;;;;;;;;20.60;35.00;;;;;;482169;247;2188;-46
2021/12/17 00:07:45;;;;;;;;;;;20.60;34.90;;;;;;482100;247;2129;-47
2021/12/17 00:09:46;;;;;;;;;;;20.60;35.00;;;;;;482438;246;1055;-47
2021/12/17 00:11:47;;;;;;;;;;;20.60;35.00;;;;;;482622;246;1207;-46
2021/12/17 00:13:49;;;;;;;;;;;20.60;35.00;;;;;;482229;246;1320;-46
2021/12/17 00:15:50;;;;;;;;;;;20.60;35.00;;;;;;482521;246;1070;-46
2021/12/17 00:17:58;;;;;;;;;;;20.60;35.00;;;;;;482284;246;1172;-46
2021/12/17 00:20:15;;;;;;;;;;;20.60;35.00;;;;;;481827;247;2162;-46
2021/12/17 00:50:11;;;;;;;;;;;20.60;35.10;;;;;;482286;247;1089;-46
2021/12/17 00:52:03;;;;;;;;;;;20.60;35.20;;;;;;481731;247;1771;-46
2021/12/17 00:54:07;;;;;;;;;;;20.60;35.20;;;;;;482234;246;1037;-46
2021/12/17 00:56:06;;;;;;;;;;;20.60;35.10;;;;;;482038;247;2466;-47
2021/12/17 00:58:07;;;;;;;;;;;20.60;35.10;;;;;;482678;246;1134;-46
2021/12/17 01:00:09;;;;;;;;;;;20.60;35.10;;;;;;482352;246;1306;-46
2021/12/17 01:02:10;;;;;;;;;;;20.60;35.10;;;;;;482442;246;1183;-46
2021/12/17 01:04:11;;;;;;;;;;;20.60;35.20;;;;;;482285;246;976;-46
2021/12/17 01:06:13;;;;;;;;;;;20.60;35.20;;;;;;482645;246;2138;-46
2021/12/17 01:08:14;;;;;;;;;;;20.50;35.20;;;;;;482235;246;1063;-46
2021/12/17 01:10:15;;;;;;;;;;;20.50;35.20;;;;;;482417;246;1090;-47
2021/12/17 01:12:17;;;;;;;;;;;20.60;35.20;;;;;;482249;246;1243;-47
2021/12/17 01:14:18;;;;;;;;;;;20.50;35.20;;;;;;482310;246;1166;-46
2021/12/17 01:16:19;;;;;;;;;;;20.60;35.20;;;;;;482520;246;1401;-46
2021/12/17 01:18:23;;;;;;;;;;;20.60;35.20;;;;;;482731;246;1080;-46
2021/12/17 01:20:34;;;;;;;;;;;20.60;35.10;;;;;;482202;247;2430;-46
2021/12/17 01:22:47;;;;;;;;;;;20.60;35.20;;;;;;481877;247;2363;-46
2021/12/17 01:24:46;;;;;;;;;;;20.60;35.20;;;;;;481828;247;2536;-46
2021/12/17 01:35:59;;;;;;;;;;;20.60;35.30;;;;;;482422;247;1193;-46
2021/12/17 01:43:03;;;;;;;;;;;20.50;35.20;;;;;;482443;246;1017;-46
2021/12/17 01:45:05;;;;;;;;;;;20.60;35.10;;;;;;482291;246;2156;-46
2021/12/17 01:47:06;;;;;;;;;;;20.60;35.20;;;;;;482269;246;1032;-47
2021/12/17 01:49:23;;;;;;;;;;;20.60;35.20;;;;;;482723;246;1291;-46
2021/12/17 01:55:51;;;;;;;;;;;20.60;35.20;;;;;;482211;247;1127;-46
2021/12/17 02:00:10;;;;;;;;;;;20.60;35.20;;;;;;482306;247;1194;-46
2021/12/17 02:02:11;;;;;;;;;;;20.60;35.20;;;;;;482266;246;1285;-46
2021/12/17 02:04:12;;;;;;;;;;;20.60;35.20;;;;;;482256;246;1207;-46
2021/12/17 02:06:13;;;;;;;;;;;20.60;35.20;;;;;;482219;246;2188;-46
2021/12/17 02:08:15;;;;;;;;;;;20.60;35.10;;;;;;482222;246;1335;-46
2021/12/17 02:10:56;;;;;;;;;;;20.60;35.20;;;;;;482685;246;1090;-46
2021/12/17 02:13:00;;;;;;;;;;;20.50;35.20;;;;;;480899;240;2021;-46
2021/12/17 02:19:44;;;;;;;;;;;20.60;35.10;;;;;;482237;247;1039;-46
2021/12/17 02:22:01;;;;;;;;;;;20.50;35.20;;;;;;481707;247;2259;-46
2021/12/17 02:28:46;;;;;;;;;;;20.60;35.30;;;;;;482231;247;1267;-46
2021/12/17 02:33:09;;;;;;;;;;;20.50;35.30;;;;;;482228;246;1179;-46
2021/12/17 02:35:31;;;;;;;;;;;20.50;35.30;;;;;;482363;246;1068;-47
2021/12/17 02:37:28;;;;;;;;;;;20.50;35.20;;;;;;481815;247;1643;-46
2021/12/17 02:39:52;;;;;;;;;;;20.50;35.30;;;;;;482374;247;2110;-46
2021/12/17 02:46:08;;;;;;;;;;;20.50;35.30;;;;;;482340;247;2133;-46
2021/12/17 02:48:10;;;;;;;;;;;20.50;35.30;;;;;;482542;246;1027;-46
2021/12/17 02:50:11;;;;;;;;;;;20.50;35.30;;;;;;482243;246;1282;-46
2021/12/17 02:52:12;;;;;;;;;;;20.50;35.30;;;;;;482615;246;1443;-46
2021/12/17 02:54:14;;;;;;;;;;;20.50;35.30;;;;;;482498;246;1263;-46
2021/12/17 02:56:15;;;;;;;;;;;20.60;35.30;;;;;;482323;246;1383;-46
2021/12/17 02:58:16;;;;;;;;;;;20.50;35.30;;;;;;482647;246;1206;-46
2021/12/17 03:00:18;;;;;;;;;;;20.50;35.30;;;;;;482274;246;1069;-46
2021/12/17 03:02:22;;;;;;;;;;;20.50;35.30;;;;;;482515;246;1355;-46
2021/12/17 03:04:20;;;;;;;;;;;20.50;35.30;;;;;;482308;247;1836;-46
2021/12/17 03:06:22;;;;;;;;;;;20.50;35.30;;;;;;482269;246;2189;-46
2021/12/17 03:08:23;;;;;;;;;;;20.50;35.30;;;;;;482240;246;1569;-46
2021/12/17 03:10:24;;;;;;;;;;;20.50;35.30;;;;;;482321;246;1106;-47
2021/12/17 03:12:31;;;;;;;;;;;20.50;35.40;;;;;;482227;246;1120;-46
2021/12/17 03:14:28;;;;;;;;;;;20.50;35.40;;;;;;482267;247;2383;-46
2021/12/17 03:16:34;;;;;;;;;;;20.50;35.30;;;;;;482228;246;2422;-46
2021/12/17 03:18:58;;;;;;;;;;;20.50;35.30;;;;;;481973;247;2243;-46
2021/12/17 03:23:27;;;;;;;;;;;20.50;35.30;;;;;;482341;247;1177;-46
2021/12/17 03:25:27;;;;;;;;;;;20.50;35.40;;;;;;482327;247;2295;-46
2021/12/17 03:27:28;;;;;;;;;;;20.50;35.40;;;;;;482525;246;1205;-46
2021/12/17 03:29:30;;;;;;;;;;;20.50;35.40;;;;;;482297;246;1064;-46
2021/12/17 03:31:31;;;;;;;;;;;20.50;35.40;;;;;;482266;246;1340;-46
2021/12/17 03:33:32;;;;;;;;;;;20.50;35.30;;;;;;482312;246;1137;-46
2021/12/17 03:35:33;;;;;;;;;;;20.50;35.30;;;;;;482300;246;1055;-46
2021/12/17 03:37:35;;;;;;;;;;;20.50;35.30;;;;;;482528;246;1093;-46
2021/12/17 03:39:37;;;;;;;;;;;20.50;35.30;;;;;;482386;246;1232;-46
2021/12/17 03:41:39;;;;;;;;;;;20.50;35.40;;;;;;482600;239;2057;-47
2021/12/17 03:43:39;;;;;;;;;;;20.50;35.40;;;;;;482627;247;2181;-46
2021/12/17 03:45:40;;;;;;;;;;;20.50;35.40;;;;;;482333;246;2177;-46
2021/12/17 03:47:41;;;;;;;;;;;20.50;35.40;;;;;;482269;246;1169;-46
2021/12/17 03:49:43;;;;;;;;;;;20.50;35.30;;;;;;482234;246;1097;-46
2021/12/17 03:51:51;;;;;;;;;;;20.50;35.30;;;;;;482368;246;2233;-46
2021/12/17 03:53:50;;;;;;;;;;;20.50;35.30;;;;;;482148;247;1982;-46
2021/12/17 03:55:51;;;;;;;;;;;20.50;35.40;;;;;;482346;246;1442;-46
2021/12/17 03:57:52;;;;;;;;;;;20.50;35.40;;;;;;482259;246;1329;-46
2021/12/17 03:59:54;;;;;;;;;;;20.50;35.40;;;;;;482715;246;1105;-46
2021/12/17 04:01:55;;;;;;;;;;;20.50;35.40;;;;;;482378;246;1120;-47
2021/12/17 04:03:56;;;;;;;;;;;20.50;35.40;;;;;;482726;246;1059;-46
2021/12/17 04:05:58;;;;;;;;;;;20.50;35.40;;;;;;482627;246;2118;-46
2021/12/17 04:07:59;;;;;;;;;;;20.50;35.40;;;;;;482243;246;1227;-46
2021/12/17 04:10:00;;;;;;;;;;;20.50;35.50;;;;;;482352;246;1042;-46
2021/12/17 04:12:04;;;;;;;;;;;20.40;35.50;;;;;;482223;246;1223;-46
2021/12/17 04:14:03;;;;;;;;;;;20.40;35.50;;;;;;482074;247;2008;-46
2021/12/17 04:16:06;;;;;;;;;;;20.40;35.40;;;;;;482336;246;1263;-46
2021/12/17 04:18:07;;;;;;;;;;;20.50;35.40;;;;;;482000;247;2213;-46
2021/12/17 04:20:07;;;;;;;;;;;20.50;35.40;;;;;;482152;247;2063;-46
2021/12/17 04:22:08;;;;;;;;;;;20.50;35.40;;;;;;482372;246;1284;-46
2021/12/17 04:24:09;;;;;;;;;;;20.40;35.40;;;;;;482343;246;1168;-46
2021/12/17 04:26:11;;;;;;;;;;;20.50;35.40;;;;;;482245;246;2196;-46
2021/12/17 04:28:12;;;;;;;;;;;20.40;35.40;;;;;;482263;246;993;-46
2021/12/17 04:30:13;;;;;;;;;;;20.50;35.40;;;;;;482356;246;1359;-46
2021/12/17 04:32:15;;;;;;;;;;;20.50;35.40;;;;;;482169;246;1211;-46
2021/12/17 04:34:17;;;;;;;;;;;20.50;35.50;;;;;;482518;246;1053;-46
2021/12/17 04:36:23;;;;;;;;;;;20.50;35.40;;;;;;482295;246;2284;-46
2021/12/17 04:38:22;;;;;;;;;;;20.50;35.50;;;;;;481945;247;2001;-46
2021/12/17 04:40:23;;;;;;;;;;;20.50;35.50;;;;;;482111;247;2519;-46
2021/12/17 04:42:31;;;;;;;;;;;20.50;35.40;;;;;;482012;247;2304;-46
2021/12/17 04:44:29;;;;;;;;;;;20.50;35.40;;;;;;481883;246;2175;-46
2021/12/17 04:46:32;;;;;;;;;;;20.50;35.50;;;;;;481827;247;2125;-46
2021/12/17 04:57:51;;;;;;;;;;;20.40;35.40;;;;;;482217;247;1145;-46
2021/12/17 04:59:49;;;;;;;;;;;20.40;35.50;;;;;;482071;247;2261;-46
2021/12/17 05:01:51;;;;;;;;;;;20.50;35.40;;;;;;482115;246;2099;-47
2021/12/17 05:03:53;;;;;;;;;;;20.50;35.50;;;;;;482504;246;1301;-46
2021/12/17 05:05:54;;;;;;;;;;;20.50;35.40;;;;;;482166;246;2149;-46
2021/12/17 05:08:02;;;;;;;;;;;20.50;35.50;;;;;;482311;246;1056;-46
2021/12/17 05:10:04;;;;;;;;;;;20.40;35.40;;;;;;481836;247;1464;-46
2021/12/17 05:19:02;;;;;;;;;;;20.40;35.50;;;;;;482276;247;1150;-47
2021/12/17 05:21:00;;;;;;;;;;;20.40;35.40;;;;;;481756;247;2208;-46
2021/12/17 05:23:00;;;;;;;;;;;20.50;35.50;;;;;;482056;247;1798;-46
2021/12/17 05:25:00;;;;;;;;;;;20.40;35.50;;;;;;482179;247;2321;-46
2021/12/17 05:27:01;;;;;;;;;;;20.50;35.50;;;;;;482166;246;2137;-46
2021/12/17 05:29:02;;;;;;;;;;;20.50;35.40;;;;;;482296;246;1208;-46
2021/12/17 05:31:04;;;;;;;;;;;20.50;35.40;;;;;;482132;240;1325;-47
2021/12/17 05:33:05;;;;;;;;;;;20.50;35.50;;;;;;482211;246;1224;-46
2021/12/17 05:35:06;;;;;;;;;;;20.50;35.40;;;;;;482137;246;1123;-46
2021/12/17 05:37:07;;;;;;;;;;;20.40;35.50;;;;;;482034;246;1189;-46
2021/12/17 05:39:09;;;;;;;;;;;20.50;35.40;;;;;;482101;246;1176;-46
2021/12/17 05:41:10;;;;;;;;;;;20.50;35.50;;;;;;482010;246;1178;-46
2021/12/17 05:43:12;;;;;;;;;;;20.50;35.50;;;;;;482182;246;1222;-46
2021/12/17 05:45:22;;;;;;;;;;;20.50;35.50;;;;;;482166;246;2375;-46
2021/12/17 05:47:21;;;;;;;;;;;20.40;35.50;;;;;;482130;246;2188;-46
2021/12/17 05:49:23;;;;;;;;;;;20.50;35.60;;;;;;482314;246;1066;-46
2021/12/17 05:51:24;;;;;;;;;;;20.40;35.50;;;;;;482169;246;1344;-47
2021/12/17 05:53:26;;;;;;;;;;;20.40;35.50;;;;;;482156;246;1092;-46
2021/12/17 05:55:27;;;;;;;;;;;20.50;35.50;;;;;;482239;246;994;-46
2021/12/17 05:57:28;;;;;;;;;;;20.40;35.60;;;;;;482115;246;1223;-46
2021/12/17 05:59:34;;;;;;;;;;;20.40;35.50;;;;;;482289;246;1255;-46
2021/12/17 06:01:31;;;;;;;;;;;20.40;35.50;;;;;;481853;247;2281;-46
2021/12/17 06:03:32;;;;;;;;;;;20.40;35.50;;;;;;482093;246;1243;-46
2021/12/17 06:05:34;;;;;;;;;;;20.50;35.60;;;;;;482245;246;1187;-46
2021/12/17 06:07:35;;;;;;;;;;;20.40;35.50;;;;;;482033;246;2137;-46
2021/12/17 06:09:37;;;;;;;;;;;20.40;35.50;;;;;;482524;246;1271;-46
2021/12/17 06:11:38;;;;;;;;;;;20.40;35.50;;;;;;482104;246;1734;-46
2021/12/17 06:13:39;;;;;;;;;;;20.40;35.50;;;;;;482332;246;1165;-46
2021/12/17 06:15:40;;;;;;;;;;;20.40;35.50;;;;;;482077;246;1034;-46
2021/12/17 06:17:41;;;;;;;;;;;20.40;35.60;;;;;;482134;246;1231;-46
2021/12/17 06:19:43;;;;;;;;;;;20.40;35.50;;;;;;482089;246;1099;-46
2021/12/17 06:21:44;;;;;;;;;;;20.40;35.50;;;;;;482075;246;1559;-46
2021/12/17 06:23:45;;;;;;;;;;;20.40;35.50;;;;;;482135;246;1080;-46
2021/12/17 06:25:47;;;;;;;;;;;20.40;35.50;;;;;;482147;246;1342;-46
2021/12/17 06:27:48;;;;;;;;;;;20.50;35.60;;;;;;482108;246;2141;-46
2021/12/17 06:29:49;;;;;;;;;;;20.50;35.50;;;;;;482370;246;1038;-46
2021/12/17 06:31:51;;;;;;;;;;;20.40;35.50;;;;;;481927;246;1421;-46
2021/12/17 06:33:52;;;;;;;;;;;20.40;35.50;;;;;;482135;246;1202;-47
2021/12/17 06:35:53;;;;;;;;;;;20.40;35.50;;;;;;482249;246;1347;-46
2021/12/17 06:37:55;;;;;;;;;;;20.40;35.50;;;;;;481927;246;1234;-46
2021/12/17 06:39:58;;;;;;;;;;;20.40;35.60;;;;;;482061;246;1045;-46
2021/12/17 06:41:57;;;;;;;;;;;20.40;35.50;;;;;;481777;247;1535;-46
2021/12/17 06:44:00;;;;;;;;;;;20.40;35.50;;;;;;482096;246;1064;-47
2021/12/17 06:46:14;;;;;;;;;;;20.40;35.50;;;;;;481939;247;1675;-46
2021/12/17 06:48:03;;;;;;;;;;;20.40;35.50;;;;;;481142;247;2306;-47
2021/12/17 06:54:38;;;;;;;;;;;20.40;35.50;;;;;;481995;247;2309;-46
2021/12/17 06:54:50;;;;;;;;;;;20.40;35.60;;;;;;482100;247;1035;-46
2021/12/17 06:59:20;;;;;;;;;;;20.40;35.60;;;;;;478008;247;1298;-46
2021/12/17 07:01:18;;;;;;;;;;;20.40;35.60;;;;;;481109;247;1430;-46
2021/12/17 07:09:09;;;;;;;;;;;20.40;35.70;;;;;;457809;259;2201;-46
2021/12/17 07:10:39;;;;;;;;;;;20.40;35.60;;;;;;457712;260;1840;-46
2021/12/17 07:17:22;;;;;;;;;;;20.40;35.70;;;;;;456815;260;1604;-46
2021/12/17 07:20:17;;;;;;;;;;;20.40;35.70;;;;;;456872;260;2437;-46
2021/12/17 07:21:54;;;;;;;;;;;20.40;35.70;;;;;;456983;260;2062;-46
2021/12/17 07:33:21;;;;;;;;;;;20.40;35.50;;;;;;456894;256;1252;-46
2021/12/17 07:35:45;;;;;;;;;;;20.40;35.50;;;;;;456949;260;2178;-46
2021/12/17 07:40:02;;;;;;;;;;;20.50;35.60;;;;;;479312;244;1175;-46
2021/12/17 07:42:04;;;;;;;;;;;20.50;35.60;;;;;;488313;242;1197;-46
2021/12/17 07:44:06;;;;;;;;;;;20.40;35.50;;;;;;488333;243;1215;-45
2021/12/17 07:46:06;;;;;;;;;;;20.40;35.50;;;;;;488332;242;2136;-46
2021/12/17 07:48:08;;;;;;;;;;;20.40;35.50;;;;;;488256;243;2189;-46
2021/12/17 07:50:09;;;;;;;;;;;20.50;35.60;;;;;;488258;243;1072;-46
2021/12/17 07:52:11;;;;;;;;;;;20.50;35.60;;;;;;488324;243;1174;-46
2021/12/17 07:54:12;;;;;;;;;;;20.40;35.50;;;;;;488525;243;1106;-46
2021/12/17 07:56:14;;;;;;;;;;;20.40;35.50;;;;;;488368;243;1514;-46
2021/12/17 07:58:15;;;;;;;;;;;20.50;35.60;;;;;;488301;243;1228;-46
2021/12/17 08:00:16;;;;;;;;;;;20.50;35.50;;;;;;488285;243;1234;-46
2021/12/17 08:02:17;;;;;;;;;;;20.50;35.50;;;;;;488219;243;1329;-46
2021/12/17 08:04:19;;;;;;;;;;;20.40;35.50;;;;;;488054;243;1113;-46
2021/12/17 08:06:20;;;;;;;;;;;20.40;35.60;;;;;;488265;243;1185;-46
2021/12/17 08:08:21;;;;;;;;;;;20.40;35.60;;;;;;488149;243;2190;-46
2021/12/17 08:10:23;;;;;;;;;;;20.40;35.50;;;;;;488071;243;1243;-46
2021/12/17 08:12:24;;;;;;;;;;;20.50;35.60;;;;;;487984;243;1227;-46
2021/12/17 08:14:27;;;;;;;;;;;20.40;35.50;;;;;;488043;243;1058;-46
2021/12/17 08:16:35;;;;;;;;;;;20.40;35.50;;;;;;487962;242;2062;-47
2021/12/17 08:18:51;;;;;;;;;;;20.40;35.60;;;;;;488282;242;2039;-46
2021/12/17 08:25:30;;;;;;;;;;;20.40;35.60;;;;;;488235;242;1100;-46
2021/12/17 08:27:32;;;;;;;;;;;20.40;35.60;;;;;;488180;242;2131;-46
2021/12/17 08:29:50;;;;;;;;;;;20.40;35.50;;;;;;488135;242;2366;-46
2021/12/17 08:31:44;;;;;;;;;;;20.40;35.50;;;;;;488308;242;2288;-46
2021/12/17 08:33:46;;;;;;;;;;;20.40;35.50;;;;;;488128;243;1231;-46
2021/12/17 08:35:47;;;;;;;;;;;20.50;35.60;;;;;;488205;243;1083;-46
2021/12/17 08:37:48;;;;;;;;;;;20.40;35.60;;;;;;488135;243;1225;-46
2021/12/17 08:39:50;;;;;;;;;;;20.50;35.50;;;;;;488298;243;1153;-47
2021/12/17 08:41:53;;;;;;;;;;;20.40;35.50;;;;;;488062;243;1210;-46
2021/12/17 08:43:52;;;;;;;;;;;20.40;35.50;;;;;;488193;242;1758;-46
2021/12/17 08:45:54;;;;;;;;;;;20.40;35.50;;;;;;488069;243;1068;-46
2021/12/17 08:47:55;;;;;;;;;;;20.40;35.60;;;;;;488065;243;2127;-46
2021/12/17 08:50:00;;;;;;;;;;;20.40;35.60;;;;;;488148;243;1210;-46
2021/12/17 08:51:58;;;;;;;;;;;20.40;35.60;;;;;;488011;242;1512;-46
2021/12/17 08:53:59;;;;;;;;;;;20.40;35.60;;;;;;488191;243;1076;-46
2021/12/17 08:56:00;;;;;;;;;;;20.40;35.50;;;;;;488180;243;1113;-46
2021/12/17 08:58:02;;;;;;;;;;;20.40;35.50;;;;;;488063;243;1114;-46
2021/12/17 09:00:06;;;;;;;;;;;20.40;35.60;;;;;;488047;243;1077;-46
2021/12/17 09:02:05;;;;;;;;;;;20.40;35.60;;;;;;487886;242;2066;-46
2021/12/17 09:04:06;;;;;;;;;;;20.40;35.60;;;;;;488148;243;1184;-46
2021/12/17 09:06:07;;;;;;;;;;;20.40;35.60;;;;;;487915;243;1116;-46
2021/12/17 09:08:08;;;;;;;;;;;20.50;35.60;;;;;;488045;243;2177;-46
2021/12/17 09:10:11;;;;;;;;;;;20.40;35.50;;;;;;488033;243;1054;-46
2021/12/17 09:12:11;;;;;;;;;;;20.40;35.50;;;;;;487990;242;1930;-46
2021/12/17 09:14:12;;;;;;;;;;;20.40;35.50;;;;;;488215;243;1140;-46
2021/12/17 09:16:14;;;;;;;;;;;20.40;35.60;;;;;;488112;243;1117;-46
2021/12/17 09:18:15;;;;;;;;;;;20.40;35.70;;;;;;488549;243;1132;-46
2021/12/17 09:20:17;;;;;;;;;;;20.40;35.60;;;;;;488256;243;1303;-46
2021/12/17 09:22:18;;;;;;;;;;;20.40;35.60;;;;;;488183;243;1656;-46
2021/12/17 09:24:19;;;;;;;;;;;20.40;35.50;;;;;;488228;243;1106;-46
2021/12/17 09:26:21;;;;;;;;;;;20.50;35.60;;;;;;488087;243;1228;-46
2021/12/17 09:28:22;;;;;;;;;;;20.40;35.50;;;;;;488280;243;2189;-46
2021/12/17 09:30:23;;;;;;;;;;;20.40;35.50;;;;;;488039;243;1056;-46
2021/12/17 09:32:25;;;;;;;;;;;20.50;35.50;;;;;;488041;242;1813;-46
2021/12/17 09:34:26;;;;;;;;;;;20.50;35.50;;;;;;488008;243;1228;-46
2021/12/17 09:36:27;;;;;;;;;;;20.50;35.40;;;;;;488103;242;1354;-46
2021/12/17 09:38:30;;;;;;;;;;;20.50;35.40;;;;;;488065;243;1010;-46
2021/12/17 09:40:30;;;;;;;;;;;20.50;35.50;;;;;;488053;242;2020;-46
2021/12/17 09:42:31;;;;;;;;;;;20.50;35.50;;;;;;488235;243;1174;-46
2021/12/17 09:44:33;;;;;;;;;;;20.50;35.50;;;;;;487748;243;1207;-46
2021/12/17 09:46:34;;;;;;;;;;;20.50;35.50;;;;;;487860;243;1228;-46
2021/12/17 09:48:35;;;;;;;;;;;20.60;35.40;;;;;;487855;243;2189;-46
2021/12/17 09:50:37;;;;;;;;;;;20.60;35.40;;;;;;488034;242;1340;-46
2021/12/17 09:52:38;;;;;;;;;;;20.60;35.40;;;;;;488032;243;1205;-46
2021/12/17 09:54:40;;;;;;;;;;;20.60;35.30;;;;;;487811;243;1113;-46
2021/12/17 09:56:41;;;;;;;;;;;20.60;35.20;;;;;;488024;242;1437;-46
2021/12/17 09:58:42;;;;;;;;;;;20.60;35.20;;;;;;487913;243;1120;-46
2021/12/17 10:00:43;;;;;;;;;;;20.60;35.30;;;;;;488108;243;1078;-46
2021/12/17 10:02:45;;;;;;;;;;;20.60;35.30;;;;;;488088;243;1071;-46
2021/12/17 10:04:46;;;;;;;;;;;20.60;35.30;;;;;;488100;242;1149;-46
2021/12/17 10:06:47;;;;;;;;;;;20.60;35.30;;;;;;488076;243;1332;-46
2021/12/17 10:08:49;;;;;;;;;;;20.60;35.30;;;;;;488022;243;2189;-46
2021/12/17 10:10:50;;;;;;;;;;;20.60;35.20;;;;;;487833;243;1274;-46
2021/12/17 10:12:53;;;;;;;;;;;20.60;35.30;;;;;;488004;243;1122;-46
2021/12/17 10:14:53;;;;;;;;;;;20.60;35.20;;;;;;488136;242;2046;-46
2021/12/17 10:16:54;;;;;;;;;;;20.60;35.20;;;;;;488102;242;1191;-46
2021/12/17 10:18:55;;;;;;;;;;;20.60;35.30;;;;;;488306;242;1269;-46
2021/12/17 10:20:57;;;;;;;;;;;20.60;35.30;;;;;;488129;243;1202;-46
2021/12/17 10:22:58;;;;;;;;;;;20.60;35.30;;;;;;488073;243;1112;-46
2021/12/17 10:24:59;;;;;;;;;;;20.70;35.30;;;;;;487972;243;1067;-46
2021/12/17 10:27:01;;;;;;;;;;;20.60;35.20;;;;;;487888;243;1309;-46
2021/12/17 10:29:02;;;;;;;;;;;20.70;35.30;;;;;;487947;243;2193;-46
2021/12/17 10:31:03;;;;;;;;;;;20.70;35.20;;;;;;488017;243;1131;-46
2021/12/17 10:33:04;;;;;;;;;;;20.70;35.20;;;;;;487871;243;1103;-46
2021/12/17 10:35:06;;;;;;;;;;;20.70;35.20;;;;;;487970;242;1433;-46
2021/12/17 10:37:07;;;;;;;;;;;20.70;35.20;;;;;;487858;243;1146;-46
2021/12/17 10:39:09;;;;;;;;;;;20.70;35.20;;;;;;488195;243;1043;-46
2021/12/17 10:41:13;;;;;;;;;;;20.70;35.30;;;;;;488172;242;1358;-46
2021/12/17 10:43:15;;;;;;;;;;;20.70;35.20;;;;;;488119;242;2012;-46
2021/12/17 10:45:23;;;;;;;;;;;20.70;35.20;;;;;;488126;242;2364;-46
2021/12/17 10:47:19;;;;;;;;;;;20.70;35.30;;;;;;488142;242;2022;-46
2021/12/17 10:49:17;;;;;;;;;;;20.70;35.20;;;;;;488206;242;2170;-46
2021/12/17 10:51:19;;;;;;;;;;;20.70;35.30;;;;;;488267;242;2404;-46
2021/12/17 10:53:18;;;;;;;;;;;20.70;35.30;;;;;;488103;242;1782;-46
2021/12/17 10:55:19;;;;;;;;;;;20.70;35.30;;;;;;488183;240;1141;-46
2021/12/17 10:57:21;;;;;;;;;;;20.70;35.20;;;;;;488065;243;1118;-46
2021/12/17 10:59:22;;;;;;;;;;;20.70;35.20;;;;;;488245;243;1093;-46
2021/12/17 11:01:23;;;;;;;;;;;20.70;35.30;;;;;;488023;243;1098;-46
2021/12/17 11:03:25;;;;;;;;;;;20.70;35.20;;;;;;488126;243;1443;-46
2021/12/17 11:05:26;;;;;;;;;;;20.70;35.20;;;;;;488108;243;1195;-46
2021/12/17 11:07:27;;;;;;;;;;;20.70;35.20;;;;;;488108;243;1385;-46
2021/12/17 11:09:29;;;;;;;;;;;20.70;35.20;;;;;;488167;243;2130;-46
2021/12/17 11:11:30;;;;;;;;;;;20.70;35.20;;;;;;488095;243;1214;-46
2021/12/17 11:13:31;;;;;;;;;;;20.70;35.20;;;;;;487966;243;1194;-46
2021/12/17 11:15:33;;;;;;;;;;;20.70;35.10;;;;;;488000;242;1321;-46
2021/12/17 11:17:34;;;;;;;;;;;20.70;35.20;;;;;;488118;243;1207;-47
2021/12/17 11:19:35;;;;;;;;;;;20.70;35.20;;;;;;487971;243;1037;-47
2021/12/17 11:21:37;;;;;;;;;;;20.70;35.30;;;;;;488044;243;1341;-47
2021/12/17 11:23:38;;;;;;;;;;;20.70;35.20;;;;;;488474;242;1054;-46
2021/12/17 11:25:39;;;;;;;;;;;20.60;35.20;;;;;;488140;243;1369;-46
2021/12/17 11:27:41;;;;;;;;;;;20.70;35.30;;;;;;488125;242;1214;-46
2021/12/17 11:29:42;;;;;;;;;;;20.70;35.20;;;;;;488195;243;2127;-46
2021/12/17 11:31:43;;;;;;;;;;;20.70;35.30;;;;;;488378;243;1599;-46
2021/12/17 11:33:45;;;;;;;;;;;20.70;35.30;;;;;;488067;243;1336;-46
2021/12/17 11:35:47;;;;;;;;;;;20.70;35.30;;;;;;487972;242;1301;-46
2021/12/17 11:37:48;;;;;;;;;;;20.70;35.30;;;;;;488620;242;1369;-46
2021/12/17 11:39:49;;;;;;;;;;;20.60;35.30;;;;;;488789;242;1263;-46
2021/12/17 11:41:52;;;;;;;;;;;20.70;35.30;;;;;;488263;243;1212;-47
2021/12/17 11:43:54;;;;;;;;;;;20.70;35.30;;;;;;488395;243;2287;-46
2021/12/17 11:45:54;;;;;;;;;;;20.70;35.20;;;;;;488772;243;1318;-46
2021/12/17 11:47:57;;;;;;;;;;;20.70;35.20;;;;;;488759;243;1081;-46
2021/12/17 11:49:57;;;;;;;;;;;20.70;35.20;;;;;;488009;242;2352;-46
2021/12/17 11:51:58;;;;;;;;;;;20.70;35.20;;;;;;487900;243;1272;-46
2021/12/17 11:53:59;;;;;;;;;;;20.70;35.20;;;;;;488265;243;1050;-46
2021/12/17 11:56:01;;;;;;;;;;;20.70;35.20;;;;;;488201;242;1216;-46
2021/12/17 11:58:02;;;;;;;;;;;20.70;35.20;;;;;;488222;243;1232;-46
2021/12/17 12:00:03;;;;;;;;;;;20.80;35.20;;;;;;488395;242;1011;-46
2021/12/17 12:02:05;;;;;;;;;;;20.70;35.20;;;;;;488256;243;1221;-47
2021/12/17 12:04:06;;;;;;;;;;;20.70;35.30;;;;;;488362;242;2150;-46
2021/12/17 12:06:07;;;;;;;;;;;20.80;35.20;;;;;;488352;243;1203;-46
2021/12/17 12:08:09;;;;;;;;;;;20.80;35.20;;;;;;488284;242;1207;-46
2021/12/17 12:10:11;;;;;;;;;;;20.70;35.20;;;;;;488018;243;2131;-46
2021/12/17 12:12:11;;;;;;;;;;;20.70;35.10;;;;;;488229;242;2114;-46
2021/12/17 12:14:12;;;;;;;;;;;20.80;35.20;;;;;;488076;243;1209;-46
2021/12/17 12:16:14;;;;;;;;;;;20.80;35.20;;;;;;488131;243;1213;-45
2021/12/17 12:18:16;;;;;;;;;;;20.80;35.20;;;;;;488025;243;1189;-46
2021/12/17 12:20:16;;;;;;;;;;;20.80;35.20;;;;;;487963;242;2347;-46
2021/12/17 12:22:18;;;;;;;;;;;20.80;35.20;;;;;;488166;243;1258;-46
2021/12/17 12:24:19;;;;;;;;;;;20.80;35.20;;;;;;488296;243;1096;-46
2021/12/17 12:26:20;;;;;;;;;;;20.70;35.20;;;;;;488254;243;1211;-47
2021/12/17 12:28:22;;;;;;;;;;;20.80;35.20;;;;;;488290;243;2166;-46
2021/12/17 12:30:23;;;;;;;;;;;20.80;35.20;;;;;;488314;243;1190;-46
2021/12/17 12:32:24;;;;;;;;;;;20.80;35.20;;;;;;488236;243;1165;-46
2021/12/17 12:34:26;;;;;;;;;;;20.80;35.30;;;;;;488123;243;1231;-47
2021/12/17 12:36:27;;;;;;;;;;;20.80;35.20;;;;;;488119;243;1380;-46
2021/12/17 12:38:28;;;;;;;;;;;20.80;35.20;;;;;;488227;242;1379;-47
2021/12/17 12:40:33;;;;;;;;;;;20.80;35.20;;;;;;488136;243;1163;-46
2021/12/17 12:42:31;;;;;;;;;;;20.80;35.20;;;;;;488322;242;1766;-46
2021/12/17 12:44:32;;;;;;;;;;;20.80;35.20;;;;;;488141;243;1036;-46
2021/12/17 12:46:34;;;;;;;;;;;20.80;35.20;;;;;;488039;243;1328;-46
2021/12/17 12:48:38;;;;;;;;;;;20.80;35.20;;;;;;488065;243;2173;-46
2021/12/17 12:50:37;;;;;;;;;;;20.80;35.20;;;;;;488024;243;2418;-47
2021/12/17 12:52:40;;;;;;;;;;;20.80;35.30;;;;;;488066;243;1206;-46
2021/12/17 12:54:41;;;;;;;;;;;20.80;35.30;;;;;;488170;243;1394;-46
2021/12/17 12:56:42;;;;;;;;;;;20.70;35.30;;;;;;488335;243;1397;-46
2021/12/17 12:58:43;;;;;;;;;;;20.80;35.30;;;;;;488072;243;1075;-46
2021/12/17 13:00:45;;;;;;;;;;;20.80;35.30;;;;;;488365;243;1265;-46
2021/12/17 13:02:46;;;;;;;;;;;20.80;35.30;;;;;;488026;243;1212;-46
2021/12/17 13:04:47;;;;;;;;;;;20.70;35.30;;;;;;488299;243;1033;-46
2021/12/17 13:06:49;;;;;;;;;;;20.80;35.30;;;;;;488373;243;1183;-47
2021/12/17 13:08:50;;;;;;;;;;;20.70;35.30;;;;;;488194;243;2134;-46
2021/12/17 13:10:51;;;;;;;;;;;20.70;35.40;;;;;;487934;243;1389;-46
2021/12/17 13:12:53;;;;;;;;;;;20.70;35.40;;;;;;488036;242;1364;-46
2021/12/17 13:14:55;;;;;;;;;;;20.80;35.30;;;;;;487984;242;1180;-47
2021/12/17 13:17:17;;;;;;;;;;;20.70;35.40;;;;;;487976;242;2160;-47
2021/12/17 13:21:32;;;;;;;;;;;20.70;35.40;;;;;;488175;242;1335;-46
2021/12/17 13:23:20;;;;;;;;;;;20.70;35.40;;;;;;488555;242;2140;-46
2021/12/17 13:25:20;;;;;;;;;;;20.70;35.50;;;;;;488442;242;2164;-46
2021/12/17 13:27:22;;;;;;;;;;;20.60;35.40;;;;;;488428;243;1504;-47
2021/12/17 13:29:24;;;;;;;;;;;20.70;35.50;;;;;;488318;243;2119;-46
2021/12/17 13:31:24;;;;;;;;;;;20.70;35.50;;;;;;488304;242;1887;-46
2021/12/17 13:33:25;;;;;;;;;;;20.70;35.60;;;;;;488214;243;1253;-46
2021/12/17 13:35:27;;;;;;;;;;;20.60;35.60;;;;;;488135;242;1209;-46
2021/12/17 13:37:30;;;;;;;;;;;20.60;35.50;;;;;;488150;242;1718;-47
2021/12/17 13:39:29;;;;;;;;;;;20.60;35.50;;;;;;488359;242;2015;-46
2021/12/17 13:41:31;;;;;;;;;;;20.70;35.50;;;;;;488285;243;1571;-46
2021/12/17 13:43:32;;;;;;;;;;;20.60;35.60;;;;;;488247;243;1212;-46
2021/12/17 13:45:35;;;;;;;;;;;20.60;35.60;;;;;;488101;243;1068;-46
2021/12/17 13:47:35;;;;;;;;;;;20.60;35.50;;;;;;488175;242;2127;-46
2021/12/17 13:49:36;;;;;;;;;;;20.60;35.60;;;;;;488132;243;2178;-46
2021/12/17 13:51:37;;;;;;;;;;;20.60;35.60;;;;;;488103;243;1349;-46
2021/12/17 13:53:39;;;;;;;;;;;20.60;35.60;;;;;;488151;243;1134;-45
2021/12/17 13:55:40;;;;;;;;;;;20.60;35.50;;;;;;488135;243;1049;-46
2021/12/17 13:57:41;;;;;;;;;;;20.60;35.60;;;;;;488511;242;1192;-46
2021/12/17 13:59:43;;;;;;;;;;;20.60;35.60;;;;;;488424;243;1075;-46